createdAt,value
2023-04-28T00:00:20.014Z,9.60
2023-04-28T00:02:48.799Z,9.60
2023-04-28T00:05:16.193Z,9.60
2023-04-28T00:07:43.237Z,9.60
2023-04-28T00:10:10.596Z,9.60
2023-04-28T00:12:37.817Z,9.70
2023-04-28T00:15:05.097Z,9.70
2023-04-28T00:17:32.050Z,9.60
2023-04-28T00:19:59.192Z,9.60
2023-04-28T00:22:26.131Z,9.60
2023-04-28T00:24:53.072Z,9.60
2023-04-28T00:27:20.804Z,9.60
2023-04-28T00:29:47.767Z,9.60
2023-04-28T00:32:14.721Z,9.60
2023-04-28T00:34:41.774Z,9.60
2023-04-28T00:37:08.745Z,9.60
2023-04-28T00:39:36.024Z,9.60
2023-04-28T00:42:04.334Z,9.60
2023-04-28T00:44:31.378Z,9.60
2023-04-28T00:46:59.483Z,9.60
2023-04-28T00:49:26.892Z,9.60
2023-04-28T00:51:53.892Z,9.60
2023-04-28T00:54:21.038Z,9.60
2023-04-28T00:56:48.872Z,9.60
2023-04-28T00:59:16.017Z,9.60
2023-04-28T01:01:43.867Z,9.60
2023-04-28T01:04:11.360Z,9.60
2023-04-28T01:06:42.577Z,9.60
2023-04-28T01:09:09.548Z,9.60
2023-04-28T01:11:37.611Z,9.60
2023-04-28T01:14:09.911Z,9.60
2023-04-28T01:16:40.828Z,9.60
2023-04-28T01:19:12.274Z,9.60
2023-04-28T01:21:39.846Z,9.70
2023-04-28T01:24:17.455Z,9.70
2023-04-28T01:26:45.535Z,9.70
2023-04-28T01:29:13.169Z,9.70
2023-04-28T01:31:41.579Z,9.70
2023-04-28T01:34:08.603Z,9.80
2023-04-28T01:36:37.776Z,9.80
2023-04-28T01:39:05.434Z,9.80
2023-04-28T01:41:34.582Z,9.80
2023-04-28T01:44:01.930Z,9.80
2023-04-28T01:46:28.986Z,9.80
2023-04-28T01:48:55.971Z,9.80
2023-04-28T01:51:22.898Z,9.80
2023-04-28T01:53:49.907Z,9.80
2023-04-28T01:56:17.087Z,9.80
2023-04-28T01:58:44.277Z,9.80
2023-04-28T02:01:12.480Z,9.80
2023-04-28T02:03:39.713Z,9.90
2023-04-28T02:06:07.242Z,9.90
2023-04-28T02:08:35.941Z,9.90
2023-04-28T02:11:04.011Z,9.90
2023-04-28T02:13:31.183Z,10.00
2023-04-28T02:16:01.826Z,9.90
2023-04-28T02:18:29.012Z,9.90
2023-04-28T02:21:09.752Z,9.90
2023-04-28T02:23:36.827Z,9.80
2023-04-28T02:26:05.661Z,9.80
2023-04-28T02:28:32.756Z,9.80
2023-04-28T02:31:11.312Z,9.80
2023-04-28T02:33:38.847Z,9.80
2023-04-28T02:36:07.803Z,9.80
2023-04-28T02:38:35.200Z,9.70
2023-04-28T02:41:05.403Z,9.70
2023-04-28T02:43:33.373Z,9.70
2023-04-28T02:46:00.801Z,9.70
2023-04-28T02:48:28.506Z,9.60
2023-04-28T02:50:55.504Z,9.70
2023-04-28T02:53:22.987Z,9.60
2023-04-28T02:55:50.670Z,9.60
2023-04-28T02:58:18.225Z,9.50
2023-04-28T03:00:46.392Z,9.50
2023-04-28T03:03:14.028Z,9.50
2023-04-28T03:05:41.149Z,9.50
2023-04-28T03:08:08.082Z,9.50
2023-04-28T03:10:35.090Z,9.60
2023-04-28T03:13:03.198Z,9.60
2023-04-28T03:15:30.674Z,9.60
2023-04-28T03:17:58.037Z,9.60
2023-04-28T03:20:25.116Z,9.60
2023-04-28T03:22:52.048Z,9.60
2023-04-28T03:25:19.288Z,9.60
2023-04-28T03:27:49.178Z,9.60
2023-04-28T03:30:16.321Z,9.70
2023-04-28T03:32:43.256Z,9.70
2023-04-28T03:35:10.450Z,9.60
2023-04-28T03:37:38.788Z,9.60
2023-04-28T03:40:07.057Z,9.60
2023-04-28T03:42:51.497Z,9.60
2023-04-28T03:45:26.609Z,9.50
2023-04-28T03:47:53.603Z,9.50
2023-04-28T03:50:21.163Z,9.50
2023-04-28T03:52:48.153Z,9.50
2023-04-28T03:55:15.288Z,9.40
2023-04-28T03:57:42.597Z,9.40
2023-04-28T04:00:10.242Z,9.40
2023-04-28T04:02:42.680Z,9.30
2023-04-28T04:05:10.270Z,9.30
2023-04-28T04:07:37.708Z,9.20
2023-04-28T04:10:05.981Z,9.20
2023-04-28T04:12:34.669Z,9.20
2023-04-28T04:15:01.698Z,9.20
2023-04-28T04:17:28.954Z,9.20
2023-04-28T04:19:55.959Z,9.20
2023-04-28T04:22:22.957Z,9.20
2023-04-28T04:24:50.027Z,9.20
2023-04-28T04:27:17.100Z,9.20
2023-04-28T04:29:44.120Z,9.20
2023-04-28T04:32:13.274Z,9.10
2023-04-28T04:34:41.536Z,9.10
2023-04-28T04:37:09.634Z,9.10
2023-04-28T04:39:42.146Z,9.20
2023-04-28T04:42:23.296Z,9.20
2023-04-28T04:45:09.492Z,9.20
2023-04-28T04:47:37.009Z,9.20
2023-04-28T04:50:04.208Z,9.20
2023-04-28T04:52:31.188Z,9.20
2023-04-28T04:54:58.695Z,9.20
2023-04-28T04:57:26.044Z,9.30
2023-04-28T05:00:22.397Z,9.40
2023-04-28T05:02:49.945Z,9.50
2023-04-28T05:05:21.775Z,9.50
2023-04-28T05:08:35.002Z,9.40
2023-04-28T05:11:02.584Z,9.50
2023-04-28T05:13:29.571Z,9.50
2023-04-28T05:16:01.318Z,9.50
2023-04-28T05:18:39.979Z,9.60
2023-04-28T05:21:07.110Z,9.60
2023-04-28T05:23:34.260Z,9.60
2023-04-28T05:26:01.386Z,9.70
2023-04-28T05:28:28.439Z,9.70
2023-04-28T05:30:56.338Z,9.70
2023-04-28T05:33:24.083Z,9.70
2023-04-28T05:35:51.937Z,9.80
2023-04-28T05:38:19.216Z,9.80
2023-04-28T05:40:47.788Z,9.80
2023-04-28T05:43:14.797Z,9.90
2023-04-28T05:45:42.963Z,9.90
2023-04-28T05:48:10.548Z,9.90
2023-04-28T05:50:39.189Z,10.00
2023-04-28T05:53:07.816Z,10.00
2023-04-28T05:55:36.429Z,10.10
2023-04-28T05:58:04.258Z,10.10
2023-04-28T06:00:31.579Z,10.10
2023-04-28T06:03:00.973Z,10.20
2023-04-28T06:05:29.485Z,10.30
2023-04-28T06:07:56.665Z,10.30
2023-04-28T06:10:25.670Z,10.50
2023-04-28T06:12:52.694Z,10.70
2023-04-28T06:15:19.810Z,10.80
2023-04-28T06:17:48.217Z,10.90
2023-04-28T06:20:16.568Z,11.00
2023-04-28T06:22:43.970Z,11.00
2023-04-28T06:25:11.043Z,11.00
2023-04-28T06:27:45.298Z,11.10
2023-04-28T06:30:19.778Z,11.00
2023-04-28T06:32:46.966Z,11.10
2023-04-28T06:35:14.536Z,11.00
2023-04-28T06:37:41.572Z,10.90
2023-04-28T06:40:10.023Z,10.90
2023-04-28T06:42:40.601Z,10.90
2023-04-28T06:45:11.821Z,11.00
2023-04-28T06:47:40.799Z,11.10
2023-04-28T06:50:09.718Z,11.10
2023-04-28T06:52:39.734Z,11.20
2023-04-28T06:55:10.606Z,11.30
2023-04-28T06:57:40.370Z,11.50
2023-04-28T07:00:08.374Z,11.30
2023-04-28T07:02:37.029Z,11.30
2023-04-28T07:05:04.595Z,11.30
2023-04-28T07:07:32.004Z,11.20
2023-04-28T07:10:00.497Z,11.20
2023-04-28T07:12:28.103Z,11.20
2023-04-28T07:14:55.893Z,11.10
2023-04-28T07:17:22.959Z,11.10
2023-04-28T07:19:51.036Z,11.10
2023-04-28T07:22:18.231Z,11.10
2023-04-28T07:24:45.533Z,11.30
2023-04-28T07:27:12.864Z,11.40
2023-04-28T07:29:39.868Z,11.30
2023-04-28T07:32:09.108Z,11.30
2023-04-28T07:34:37.329Z,11.40
2023-04-28T07:37:05.283Z,11.40
2023-04-28T07:39:34.726Z,11.50
2023-04-28T07:42:03.301Z,11.50
2023-04-28T07:44:31.192Z,11.40
2023-04-28T07:47:00.059Z,11.30
2023-04-28T07:49:30.359Z,11.30
2023-04-28T07:51:57.596Z,11.40
2023-04-28T07:54:24.947Z,11.50
2023-04-28T07:56:52.025Z,11.50
2023-04-28T07:59:19.061Z,11.40
2023-04-28T08:01:46.091Z,11.40
2023-04-28T08:04:13.232Z,11.40
2023-04-28T08:06:41.248Z,11.40
2023-04-28T08:09:08.390Z,11.50
2023-04-28T08:11:35.329Z,11.60
2023-04-28T08:14:13.693Z,11.70
2023-04-28T08:16:41.492Z,11.70
2023-04-28T08:19:08.857Z,11.80
2023-04-28T08:21:36.389Z,11.80
2023-04-28T08:24:03.449Z,11.80
2023-04-28T08:26:30.440Z,12.00
2023-04-28T08:28:57.397Z,12.10
2023-04-28T08:31:24.684Z,12.40
2023-04-28T08:33:51.619Z,12.70
2023-04-28T08:36:19.021Z,13.00
2023-04-28T08:38:46.154Z,13.10
2023-04-28T08:41:17.046Z,13.10
2023-04-28T08:43:44.908Z,13.10
2023-04-28T08:46:14.526Z,13.10
2023-04-28T08:48:45.216Z,13.20
2023-04-28T08:51:17.232Z,13.30
2023-04-28T08:54:14.996Z,13.40
2023-04-28T08:56:36.991Z,13.50
2023-04-28T08:59:05.097Z,13.80
2023-04-28T09:01:32.875Z,14.10
2023-04-28T09:04:04.051Z,14.40
2023-04-28T09:06:38.969Z,14.30
2023-04-28T09:09:20.117Z,14.20
2023-04-28T09:11:59.553Z,14.50
2023-04-28T09:14:34.380Z,14.60
2023-04-28T09:17:02.263Z,14.50
2023-04-28T09:19:37.373Z,14.70
2023-04-28T09:22:17.569Z,15.10
2023-04-28T09:24:53.736Z,14.70
2023-04-28T09:27:29.408Z,15.80
2023-04-28T09:29:56.766Z,17.50
2023-04-28T09:32:25.172Z,20.10
2023-04-28T09:34:56.865Z,20.50
2023-04-28T09:37:31.844Z,22.20
2023-04-28T09:40:05.975Z,23.00
2023-04-28T09:42:41.316Z,21.70
2023-04-28T09:45:10.477Z,21.50
2023-04-28T09:47:39.345Z,20.00
2023-04-28T09:50:09.618Z,18.40
2023-04-28T09:52:37.194Z,19.50
2023-04-28T09:55:06.303Z,20.70
2023-04-28T09:57:35.489Z,19.90
2023-04-28T10:00:06.280Z,20.80
2023-04-28T10:05:11.459Z,21.40
2023-04-28T10:07:40.258Z,19.80
2023-04-28T10:10:08.275Z,19.30
2023-04-28T10:12:38.609Z,18.50
2023-04-28T10:15:07.741Z,18.80
2023-04-28T10:17:36.858Z,19.10
2023-04-28T10:20:05.363Z,19.50
2023-04-28T10:22:44.023Z,19.30
2023-04-28T10:25:31.257Z,19.10
2023-04-28T10:28:00.038Z,19.10
2023-04-28T10:30:31.208Z,20.00
2023-04-28T10:33:13.700Z,20.50
2023-04-28T10:35:46.197Z,19.30
2023-04-28T10:38:17.733Z,19.70
2023-04-28T10:40:48.568Z,20.40
2023-04-28T10:43:34.820Z,19.90
2023-04-28T10:46:04.966Z,19.40
2023-04-28T10:48:37.634Z,19.90
2023-04-28T10:51:04.670Z,19.60
2023-04-28T10:53:44.306Z,19.40
2023-04-28T10:56:13.466Z,19.10
2023-04-28T10:58:46.087Z,19.00
2023-04-28T11:01:19.737Z,19.10
2023-04-28T11:04:07.191Z,18.60
2023-04-28T11:06:36.795Z,18.50
2023-04-28T11:09:32.477Z,18.90
2023-04-28T11:12:11.200Z,19.40
2023-04-28T11:14:40.683Z,19.50
2023-04-28T11:17:11.450Z,20.20
2023-04-28T11:19:43.998Z,21.30
2023-04-28T11:22:18.742Z,22.30
2023-04-28T11:25:02.507Z,23.40
2023-04-28T11:27:31.348Z,23.30
2023-04-28T11:29:59.406Z,21.70
2023-04-28T11:32:34.113Z,21.00
2023-04-28T11:35:01.417Z,21.00
2023-04-28T11:37:30.712Z,20.60
2023-04-28T11:39:57.769Z,19.60
2023-04-28T11:42:27.195Z,20.00
2023-04-28T11:44:55.029Z,20.60
2023-04-28T11:47:34.959Z,20.70
2023-04-28T11:50:03.166Z,20.90
2023-04-28T11:52:30.442Z,20.70
2023-04-28T11:55:00.211Z,20.30
2023-04-28T11:57:27.693Z,19.60
2023-04-28T12:00:11.659Z,18.80
2023-04-28T12:02:39.749Z,19.10
2023-04-28T12:05:07.883Z,19.30
2023-04-28T12:07:45.712Z,19.20
2023-04-28T12:10:17.190Z,18.80
2023-04-28T12:12:51.694Z,18.70
2023-04-28T12:15:21.078Z,18.90
2023-04-28T12:17:50.734Z,18.90
2023-04-28T12:20:39.557Z,18.60
2023-04-28T12:23:07.788Z,18.30
2023-04-28T12:25:44.496Z,18.10
2023-04-28T12:28:11.545Z,18.00
2023-04-28T12:30:44.722Z,17.60
2023-04-28T12:33:25.646Z,17.80
2023-04-28T12:35:55.173Z,17.70
2023-04-28T12:38:23.159Z,17.90
2023-04-28T12:40:50.102Z,17.70
2023-04-28T12:43:16.997Z,17.70
2023-04-28T12:45:43.917Z,17.90
2023-04-28T12:48:11.086Z,17.70
2023-04-28T12:50:38.286Z,17.50
2023-04-28T12:53:05.262Z,17.40
2023-04-28T12:55:32.242Z,17.30
2023-04-28T12:57:59.551Z,17.10
2023-04-28T13:00:26.648Z,17.00
2023-04-28T13:02:53.764Z,17.10
2023-04-28T13:05:20.982Z,16.90
2023-04-28T13:07:49.395Z,16.90
2023-04-28T13:10:16.718Z,17.10
2023-04-28T13:12:43.676Z,17.40
2023-04-28T13:15:11.392Z,17.40
2023-04-28T13:17:38.562Z,17.50
2023-04-28T13:20:06.720Z,17.70
2023-04-28T13:22:33.825Z,18.10
2023-04-28T13:25:00.887Z,18.30
2023-04-28T13:27:32.891Z,18.20
2023-04-28T13:30:00.032Z,18.10
2023-04-28T13:32:28.537Z,17.80
2023-04-28T13:34:55.573Z,17.90
2023-04-28T13:37:33.453Z,17.80
2023-04-28T13:40:03.852Z,17.60
2023-04-28T13:42:31.010Z,17.70
2023-04-28T13:44:57.975Z,17.60
2023-04-28T13:47:25.469Z,17.60
2023-04-28T13:49:52.600Z,17.70
2023-04-28T13:52:19.619Z,18.00
2023-04-28T13:54:46.939Z,17.90
2023-04-28T13:57:14.174Z,17.50
2023-04-28T13:59:41.405Z,17.30
2023-04-28T14:02:09.547Z,17.40
2023-04-28T14:04:36.955Z,17.70
2023-04-28T14:07:04.639Z,18.20
2023-04-28T14:09:32.602Z,18.50
2023-04-28T14:11:59.848Z,19.00
2023-04-28T14:14:26.884Z,19.80
2023-04-28T14:16:53.848Z,20.10
2023-04-28T14:19:21.383Z,20.10
2023-04-28T14:21:48.731Z,20.10
2023-04-28T14:24:15.703Z,20.50
2023-04-28T14:26:43.979Z,20.30
2023-04-28T14:29:11.461Z,20.30
2023-04-28T14:31:39.067Z,19.90
2023-04-28T14:34:07.257Z,19.60
2023-04-28T14:36:34.594Z,19.20
2023-04-28T14:39:02.032Z,19.50
2023-04-28T14:41:29.039Z,19.70
2023-04-28T14:43:57.164Z,20.00
2023-04-28T14:46:25.370Z,20.20
2023-04-28T14:48:55.221Z,20.40
2023-04-28T14:51:22.868Z,20.50
2023-04-28T14:53:50.514Z,19.90
2023-04-28T14:56:19.452Z,19.90
2023-04-28T14:58:47.735Z,19.90
2023-04-28T15:01:17.811Z,19.60
2023-04-28T15:03:45.458Z,19.20
2023-04-28T15:06:13.383Z,19.10
2023-04-28T15:08:41.859Z,19.00
2023-04-28T15:11:09.156Z,19.10
2023-04-28T15:13:36.319Z,19.20
2023-04-28T15:16:03.611Z,19.20
2023-04-28T15:18:31.126Z,19.30
2023-04-28T15:20:58.208Z,19.30
2023-04-28T15:23:25.256Z,19.20
2023-04-28T15:25:53.736Z,19.20
2023-04-28T15:28:20.741Z,19.10
2023-04-28T15:30:47.917Z,19.20
2023-04-28T15:33:17.559Z,19.20
2023-04-28T15:35:46.656Z,19.30
2023-04-28T15:38:13.746Z,19.70
2023-04-28T15:40:42.045Z,20.00
2023-04-28T15:43:09.159Z,19.80
2023-04-28T15:45:39.348Z,19.80
2023-04-28T15:48:06.680Z,19.40
2023-04-28T15:50:34.065Z,19.00
2023-04-28T15:53:01.104Z,18.90
2023-04-28T15:55:28.064Z,18.80
2023-04-28T15:57:56.086Z,18.70
2023-04-28T16:00:26.212Z,18.70
2023-04-28T16:02:53.301Z,18.70
2023-04-28T16:05:20.526Z,18.60
2023-04-28T16:07:49.877Z,18.60
2023-04-28T16:10:17.279Z,18.40
2023-04-28T16:12:44.369Z,18.30
2023-04-28T16:15:13.412Z,18.20
2023-04-28T16:17:44.342Z,18.20
2023-04-28T16:20:12.328Z,18.40
2023-04-28T16:22:41.005Z,18.50
2023-04-28T16:25:09.374Z,18.50
2023-04-28T16:27:37.910Z,18.40
2023-04-28T16:30:08.584Z,18.40
2023-04-28T16:32:38.700Z,18.40
2023-04-28T16:35:06.509Z,18.20
2023-04-28T16:37:33.744Z,18.10
2023-04-28T16:40:01.408Z,17.80
2023-04-28T16:42:28.444Z,17.70
2023-04-28T16:44:55.430Z,17.50
2023-04-28T16:47:22.524Z,17.40
2023-04-28T16:49:49.766Z,17.30
2023-04-28T16:52:17.040Z,17.20
2023-04-28T16:54:44.298Z,16.90
2023-04-28T16:57:11.502Z,16.90
2023-04-28T16:59:38.602Z,17.00
2023-04-28T17:02:06.825Z,17.10
2023-04-28T17:04:34.117Z,17.20
2023-04-28T17:07:04.553Z,17.20
2023-04-28T17:09:33.231Z,17.10
2023-04-28T17:12:00.943Z,17.00
2023-04-28T17:14:27.994Z,16.90
2023-04-28T17:16:55.134Z,16.90
2023-04-28T17:19:22.445Z,16.80
2023-04-28T17:21:50.061Z,16.70
2023-04-28T17:24:17.003Z,16.70
2023-04-28T17:26:43.901Z,16.60
2023-04-28T17:29:12.046Z,16.50
2023-04-28T17:31:39.601Z,16.40
2023-04-28T17:34:06.648Z,16.40
2023-04-28T17:36:33.663Z,16.40
2023-04-28T17:39:00.771Z,16.30
2023-04-28T17:41:27.730Z,16.20
2023-04-28T17:43:54.769Z,16.20
2023-04-28T17:46:22.145Z,16.20
2023-04-28T17:48:49.855Z,16.20
2023-04-28T17:51:17.454Z,16.20
2023-04-28T17:53:48.603Z,16.20
2023-04-28T17:56:16.850Z,16.10
2023-04-28T17:58:44.007Z,16.10
2023-04-28T18:01:11.608Z,16.10
2023-04-28T18:03:41.689Z,16.10
2023-04-28T18:06:09.004Z,15.90
2023-04-28T18:08:37.063Z,15.80
2023-04-28T18:11:04.854Z,15.80
2023-04-28T18:13:33.254Z,15.80
2023-04-28T18:16:00.898Z,15.70
2023-04-28T18:18:30.260Z,15.70
2023-04-28T18:21:00.427Z,15.60
2023-04-28T18:23:27.674Z,15.60
2023-04-28T18:25:55.965Z,15.60
2023-04-28T18:28:22.996Z,15.40
2023-04-28T18:30:50.294Z,15.30
2023-04-28T18:33:23.080Z,15.10
2023-04-28T18:36:02.316Z,15.10
2023-04-28T18:38:30.987Z,15.00
2023-04-28T18:40:58.232Z,15.10
2023-04-28T18:43:25.915Z,15.00
2023-04-28T18:45:53.397Z,14.90
2023-04-28T18:48:22.260Z,14.90
2023-04-28T18:50:49.436Z,14.80
2023-04-28T18:53:19.982Z,14.70
2023-04-28T18:55:48.571Z,14.70
2023-04-28T18:58:15.760Z,14.60
2023-04-28T19:00:46.018Z,14.60
2023-04-28T19:03:13.662Z,14.60
2023-04-28T19:05:43.983Z,14.50
2023-04-28T19:08:12.433Z,14.50
2023-04-28T19:10:42.110Z,14.50
2023-04-28T19:13:09.269Z,14.50
2023-04-28T19:15:37.136Z,14.50
2023-04-28T19:18:04.975Z,14.30
2023-04-28T19:20:32.216Z,14.30
2023-04-28T19:23:02.043Z,14.30
2023-04-28T19:25:33.928Z,14.20
2023-04-28T19:28:00.903Z,14.20
2023-04-28T19:30:28.104Z,14.20
2023-04-28T19:32:55.145Z,14.20
2023-04-28T19:35:28.849Z,14.20
2023-04-28T19:37:55.978Z,14.20
2023-04-28T19:40:23.115Z,14.20
2023-04-28T19:42:50.304Z,14.10
2023-04-28T19:45:17.748Z,14.10
2023-04-28T19:54:53.350Z,14.10
2023-04-28T19:57:21.553Z,14.10
2023-04-28T19:59:49.659Z,14.10
2023-04-28T20:02:19.077Z,14.10
2023-04-28T20:04:49.029Z,14.10
2023-04-28T20:07:18.910Z,14.10
2023-04-28T20:09:46.327Z,14.10
2023-04-28T20:12:13.369Z,14.10
2023-04-28T20:14:40.514Z,14.10
2023-04-28T20:17:10.141Z,14.00
2023-04-28T20:19:37.856Z,14.00
2023-04-28T20:22:08.371Z,13.90
2023-04-28T20:24:38.795Z,14.00
2023-04-28T20:27:05.959Z,14.00
2023-04-28T20:29:37.106Z,13.90
2023-04-28T20:32:04.958Z,13.90
2023-04-28T20:34:32.291Z,13.90
2023-04-28T20:37:03.505Z,14.00
2023-04-28T20:39:30.820Z,14.00
2023-04-28T20:41:59.472Z,14.00
2023-04-28T20:44:29.098Z,14.00
2023-04-28T20:46:56.219Z,13.90
2023-04-28T20:49:23.988Z,13.90
2023-04-28T20:51:51.587Z,13.90
2023-04-28T20:54:18.830Z,13.40
2023-04-28T20:56:48.706Z,13.80
2023-04-28T20:59:17.762Z,13.80
2023-04-28T21:01:45.246Z,13.80
2023-04-28T21:04:13.230Z,13.70
2023-04-28T21:06:40.888Z,13.60
2023-04-28T21:09:07.948Z,13.60
2023-04-28T21:11:34.981Z,13.60
2023-04-28T21:14:02.076Z,13.50
2023-04-28T21:16:29.168Z,13.50
2023-04-28T21:18:56.780Z,13.50
2023-04-28T21:21:23.733Z,13.40
2023-04-28T21:23:51.098Z,13.40
2023-04-28T21:26:20.561Z,13.50
2023-04-28T21:31:49.399Z,13.40
2023-04-28T21:34:16.380Z,13.40
2023-04-28T21:36:43.599Z,13.30
2023-04-28T21:39:11.149Z,13.30
2023-04-28T21:41:38.443Z,13.30
2023-04-28T21:44:06.088Z,13.30
2023-04-28T21:46:34.294Z,13.30
2023-04-28T21:49:01.377Z,13.20
2023-04-28T21:51:28.767Z,13.20
2023-04-28T21:53:55.876Z,13.20
2023-04-28T21:56:22.952Z,13.20
2023-04-28T21:58:50.039Z,13.20
2023-04-28T22:01:18.060Z,13.20
2023-04-28T22:03:46.742Z,13.20
2023-04-28T22:06:13.993Z,13.20
2023-04-28T22:08:41.260Z,13.30
2023-04-28T22:11:09.660Z,13.20
2023-04-28T22:13:36.663Z,13.20
2023-04-28T22:16:04.401Z,13.20
2023-04-28T22:18:31.749Z,13.20
2023-04-28T22:20:58.792Z,13.20
2023-04-28T22:23:26.252Z,13.20
2023-04-28T22:25:53.248Z,13.20
2023-04-28T22:28:20.275Z,13.20
2023-04-28T22:30:47.837Z,13.20
2023-04-28T22:33:15.218Z,13.20
2023-04-28T22:35:42.357Z,13.10
2023-04-28T22:38:09.610Z,13.10
2023-04-28T22:40:36.976Z,13.20
2023-04-28T22:43:05.125Z,13.10
2023-04-28T22:45:33.599Z,13.10
2023-04-28T22:48:01.589Z,13.00
2023-04-28T22:50:31.535Z,13.00
2023-04-28T22:52:59.049Z,13.00
2023-04-28T22:55:28.046Z,13.00
2023-04-28T22:57:55.111Z,13.00
2023-04-28T23:00:22.708Z,13.00
2023-04-28T23:02:49.935Z,13.00
2023-04-28T23:05:18.188Z,13.00
2023-04-28T23:07:45.171Z,12.90
2023-04-28T23:10:14.378Z,12.90
2023-04-28T23:12:44.162Z,12.90
2023-04-28T23:15:11.453Z,12.90
2023-04-28T23:17:39.006Z,12.90
2023-04-28T23:20:07.410Z,12.80
2023-04-28T23:22:34.378Z,12.90
2023-04-28T23:25:01.323Z,12.80
2023-04-28T23:27:28.237Z,12.80
2023-04-28T23:29:55.304Z,12.80
2023-04-28T23:32:22.378Z,12.80
2023-04-28T23:34:49.547Z,12.80
2023-04-28T23:37:16.595Z,12.80
2023-04-28T23:39:43.560Z,12.80
2023-04-28T23:42:11.597Z,12.80
2023-04-28T23:44:38.576Z,12.80
2023-04-28T23:47:05.804Z,12.80
2023-04-28T23:49:32.799Z,12.70
2023-04-28T23:51:59.819Z,12.70
2023-04-28T23:54:26.727Z,12.70
2023-04-28T23:56:53.691Z,12.80
2023-04-28T23:59:20.683Z,12.80
